createdAt,value
2018-05-26T00:00:22.416Z,95.60
2018-05-26T00:02:50.707Z,95.60
2018-05-26T00:05:18.980Z,95.60
2018-05-26T00:07:47.279Z,95.80
2018-05-26T00:10:15.546Z,95.80
2018-05-26T00:12:43.808Z,96.10
2018-05-26T00:15:12.093Z,96.30
2018-05-26T00:17:40.351Z,96.40
2018-05-26T00:20:08.632Z,96.50
2018-05-26T00:22:36.924Z,96.90
2018-05-26T00:25:06.034Z,96.80
2018-05-26T00:27:34.400Z,96.80
2018-05-26T00:30:02.686Z,97.00
2018-05-26T00:32:30.944Z,97.20
2018-05-26T00:34:59.216Z,97.30
2018-05-26T00:37:27.476Z,97.50
2018-05-26T00:39:55.759Z,97.70
2018-05-26T00:42:24.032Z,97.90
2018-05-26T00:44:53.053Z,98.30
2018-05-26T00:47:21.332Z,98.30
2018-05-26T00:49:49.628Z,98.50
2018-05-26T00:52:17.921Z,98.70
2018-05-26T00:54:46.178Z,98.80
2018-05-26T00:57:14.470Z,99.00
2018-05-26T00:59:42.733Z,99.60
2018-05-26T01:02:11.008Z,99.60
2018-05-26T01:04:40.852Z,99.90
2018-05-26T01:07:09.892Z,99.90
2018-05-26T01:09:38.183Z,99.90
2018-05-26T01:12:06.456Z,99.90
2018-05-26T01:14:34.754Z,99.90
2018-05-26T01:17:03.052Z,99.90
2018-05-26T01:19:31.312Z,99.90
2018-05-26T01:21:59.608Z,99.90
2018-05-26T01:24:28.651Z,99.90
2018-05-26T01:26:56.935Z,99.90
2018-05-26T01:29:25.242Z,99.90
2018-05-26T01:31:54.277Z,99.90
2018-05-26T01:34:22.551Z,99.90
2018-05-26T01:36:50.852Z,99.90
2018-05-26T01:39:19.112Z,99.90
2018-05-26T01:41:47.394Z,99.90
2018-05-26T01:44:15.680Z,99.90
2018-05-26T01:46:43.931Z,99.90
2018-05-26T01:49:12.213Z,99.90
2018-05-26T01:51:40.546Z,99.90
2018-05-26T01:54:08.800Z,99.90
2018-05-26T01:56:37.187Z,99.90
2018-05-26T01:59:05.450Z,99.90
2018-05-26T02:01:33.754Z,99.90
2018-05-26T02:04:02.021Z,99.90
2018-05-26T02:06:30.300Z,99.90
2018-05-26T02:08:58.564Z,99.90
2018-05-26T02:11:26.842Z,99.90
2018-05-26T02:13:55.273Z,99.90
2018-05-26T02:16:23.551Z,99.90
2018-05-26T02:18:51.821Z,99.90
2018-05-26T02:21:20.115Z,99.90
2018-05-26T02:26:23.764Z,99.90
2018-05-26T02:28:52.124Z,99.90
2018-05-26T02:31:20.405Z,99.90
2018-05-26T02:33:48.683Z,99.90
2018-05-26T02:36:16.964Z,99.90
2018-05-26T02:38:45.239Z,99.90
2018-05-26T02:41:13.504Z,99.90
2018-05-26T02:43:41.824Z,99.90
2018-05-26T02:46:10.177Z,99.90
2018-05-26T02:48:38.476Z,99.90
2018-05-26T02:51:06.783Z,99.90
2018-05-26T02:53:35.823Z,99.90
2018-05-26T02:56:04.224Z,99.90
2018-05-26T02:58:32.504Z,99.90
2018-05-26T03:01:01.924Z,99.90
2018-05-26T03:03:30.180Z,99.90
2018-05-26T03:06:04.150Z,99.90
2018-05-26T03:08:38.108Z,99.90
2018-05-26T03:11:13.020Z,99.90
2018-05-26T03:13:47.104Z,99.90
2018-05-26T03:19:16.248Z,99.90
2018-05-26T03:21:44.615Z,99.90
2018-05-26T03:24:12.903Z,99.90
2018-05-26T03:26:41.229Z,99.90
2018-05-26T03:29:09.484Z,99.90
2018-05-26T03:31:38.527Z,99.90
2018-05-26T03:34:06.821Z,99.90
2018-05-26T03:36:35.094Z,99.90
2018-05-26T03:39:03.368Z,99.90
2018-05-26T03:41:31.660Z,99.90
2018-05-26T03:43:59.936Z,99.90
2018-05-26T03:46:28.233Z,99.90
2018-05-26T03:48:57.251Z,99.90
2018-05-26T03:51:25.520Z,99.90
2018-05-26T03:53:54.597Z,99.90
2018-05-26T03:56:34.739Z,99.90
2018-05-26T03:59:15.727Z,99.90
2018-05-26T04:01:44.031Z,99.90
2018-05-26T04:04:12.291Z,99.90
2018-05-26T04:06:40.567Z,99.90
2018-05-26T04:09:09.637Z,99.90
2018-05-26T04:11:37.904Z,99.90
2018-05-26T04:14:06.979Z,99.90
2018-05-26T04:16:35.264Z,99.90
2018-05-26T04:19:03.575Z,99.90
2018-05-26T04:21:32.632Z,99.90
2018-05-26T04:24:00.899Z,99.90
2018-05-26T04:26:29.201Z,99.90
2018-05-26T04:28:58.265Z,99.90
2018-05-26T04:31:26.536Z,99.90
2018-05-26T04:33:54.816Z,99.90
2018-05-26T04:36:23.109Z,99.90
2018-05-26T04:38:51.379Z,99.90
2018-05-26T04:41:19.764Z,99.90
2018-05-26T04:43:48.065Z,99.90
2018-05-26T04:46:17.140Z,99.90
2018-05-26T04:48:45.415Z,99.90
2018-05-26T04:51:13.715Z,99.90
2018-05-26T04:53:41.968Z,99.90
2018-05-26T04:56:10.285Z,99.90
2018-05-26T04:58:38.563Z,99.90
2018-05-26T05:01:07.598Z,99.90
2018-05-26T05:03:35.879Z,99.90
2018-05-26T05:06:04.149Z,99.90
2018-05-26T05:08:32.456Z,99.90
2018-05-26T05:11:00.725Z,99.90
2018-05-26T05:13:29.748Z,99.90
2018-05-26T05:15:58.772Z,99.90
2018-05-26T05:18:27.079Z,99.90
2018-05-26T05:20:56.895Z,99.90
2018-05-26T05:23:25.170Z,99.90
2018-05-26T05:25:53.575Z,99.90
2018-05-26T05:28:21.843Z,99.90
2018-05-26T05:30:50.147Z,99.90
2018-05-26T05:33:18.456Z,99.90
2018-05-26T05:35:46.720Z,99.90
2018-05-26T05:38:15.001Z,99.90
2018-05-26T05:40:43.264Z,99.90
2018-05-26T05:43:11.528Z,99.90
2018-05-26T05:45:39.822Z,99.90
2018-05-26T05:48:08.087Z,99.90
2018-05-26T05:50:36.371Z,99.90
2018-05-26T05:53:04.638Z,99.90
2018-05-26T05:55:32.988Z,99.90
2018-05-26T05:58:01.281Z,99.90
2018-05-26T06:00:30.335Z,99.90
2018-05-26T06:02:59.063Z,99.90
2018-05-26T06:05:28.151Z,99.90
2018-05-26T06:10:26.759Z,99.90
2018-05-26T06:12:55.801Z,99.90
2018-05-26T06:15:24.101Z,99.90
2018-05-26T06:17:52.360Z,99.90
2018-05-26T06:20:20.626Z,99.90
2018-05-26T06:22:48.924Z,99.90
2018-05-26T06:25:17.300Z,99.90
2018-05-26T06:27:45.560Z,99.90
2018-05-26T06:30:13.821Z,99.90
2018-05-26T06:32:42.082Z,99.90
2018-05-26T06:35:10.367Z,99.90
2018-05-26T06:37:38.681Z,99.90
2018-05-26T06:40:06.935Z,99.90
2018-05-26T06:42:35.310Z,99.90
2018-05-26T06:45:03.591Z,99.80
2018-05-26T06:47:31.863Z,99.80
2018-05-26T06:50:00.145Z,99.80
2018-05-26T06:52:28.423Z,99.70
2018-05-26T06:54:57.536Z,99.80
2018-05-26T06:57:25.840Z,99.80
2018-05-26T06:59:54.123Z,99.70
2018-05-26T07:02:22.393Z,99.60
2018-05-26T07:04:50.725Z,99.70
2018-05-26T07:07:18.992Z,99.60
2018-05-26T07:09:48.376Z,99.50
2018-05-26T07:12:16.655Z,99.20
2018-05-26T07:14:44.935Z,99.50
2018-05-26T07:17:13.244Z,99.30
2018-05-26T07:19:41.524Z,99.40
2018-05-26T07:22:09.903Z,99.50
2018-05-26T07:24:38.201Z,99.20
2018-05-26T07:27:06.548Z,99.00
2018-05-26T07:29:34.851Z,98.90
2018-05-26T07:32:03.100Z,99.20
2018-05-26T07:34:31.381Z,99.20
2018-05-26T07:36:59.656Z,99.10
2018-05-26T07:39:27.924Z,98.70
2018-05-26T07:41:56.231Z,98.60
2018-05-26T07:44:24.491Z,98.50
2018-05-26T07:46:54.275Z,98.40
2018-05-26T07:49:22.548Z,98.40
2018-05-26T07:51:50.822Z,98.30
2018-05-26T07:54:19.095Z,98.10
2018-05-26T07:56:47.387Z,98.00
2018-05-26T07:59:15.644Z,98.00
2018-05-26T08:01:43.936Z,98.00
2018-05-26T08:04:12.250Z,98.20
2018-05-26T08:06:40.528Z,98.20
2018-05-26T08:09:09.599Z,98.10
2018-05-26T08:11:37.899Z,98.10
2018-05-26T08:14:06.943Z,97.70
2018-05-26T08:16:35.223Z,97.70
2018-05-26T08:19:03.530Z,97.70
2018-05-26T08:21:31.797Z,97.80
2018-05-26T08:24:00.184Z,97.20
2018-05-26T08:26:28.443Z,97.70
2018-05-26T08:28:56.702Z,97.30
2018-05-26T08:31:24.991Z,96.90
2018-05-26T08:33:53.309Z,96.90
2018-05-26T08:36:21.548Z,97.10
2018-05-26T08:38:49.811Z,97.20
2018-05-26T08:41:18.223Z,97.20
2018-05-26T08:43:46.524Z,97.10
2018-05-26T08:46:15.568Z,96.90
2018-05-26T08:48:43.833Z,96.80
2018-05-26T08:51:12.104Z,96.80
2018-05-26T08:53:40.379Z,96.50
2018-05-26T08:56:08.690Z,95.90
2018-05-26T08:58:36.970Z,96.00
2018-05-26T09:01:05.264Z,95.70
2018-05-26T09:03:33.517Z,95.50
2018-05-26T09:06:01.811Z,95.50
2018-05-26T09:08:30.067Z,94.90
2018-05-26T09:10:58.320Z,94.90
2018-05-26T09:13:26.640Z,94.80
2018-05-26T09:15:54.924Z,94.90
2018-05-26T09:18:23.192Z,95.00
2018-05-26T09:20:51.540Z,94.80
2018-05-26T09:23:19.799Z,94.20
2018-05-26T09:25:48.075Z,93.60
2018-05-26T09:28:16.379Z,93.30
2018-05-26T09:30:44.675Z,93.00
2018-05-26T09:33:12.959Z,92.80
2018-05-26T09:35:41.336Z,92.90
2018-05-26T09:38:09.594Z,93.30
2018-05-26T09:40:39.395Z,92.90
2018-05-26T09:43:07.657Z,92.90
2018-05-26T09:45:35.975Z,92.20
2018-05-26T09:48:05.024Z,91.50
2018-05-26T09:50:33.272Z,91.40
2018-05-26T09:53:02.384Z,91.70
2018-05-26T09:55:31.390Z,91.50
2018-05-26T09:57:59.659Z,91.40
2018-05-26T10:00:27.929Z,91.40
2018-05-26T10:02:56.243Z,91.00
2018-05-26T10:05:24.555Z,91.20
2018-05-26T10:07:52.847Z,91.00
2018-05-26T10:10:21.885Z,89.30
2018-05-26T10:12:50.220Z,89.20
2018-05-26T10:15:18.476Z,88.30
2018-05-26T10:17:47.560Z,87.20
2018-05-26T10:20:15.817Z,87.10
2018-05-26T10:22:44.108Z,88.20
2018-05-26T10:25:12.487Z,85.20
2018-05-26T10:27:40.766Z,84.10
2018-05-26T10:30:09.844Z,85.40
2018-05-26T10:32:38.103Z,85.30
2018-05-26T10:35:06.395Z,82.90
2018-05-26T10:37:34.667Z,81.80
2018-05-26T10:40:02.931Z,79.90
2018-05-26T10:42:31.204Z,79.40
2018-05-26T10:44:59.507Z,80.10
2018-05-26T10:47:27.778Z,79.80
2018-05-26T10:49:56.107Z,79.40
2018-05-26T10:52:25.138Z,77.10
2018-05-26T10:54:53.404Z,77.10
2018-05-26T10:57:21.820Z,78.00
2018-05-26T10:59:50.104Z,78.60
2018-05-26T11:02:19.132Z,75.20
2018-05-26T11:04:47.449Z,75.00
2018-05-26T11:07:15.715Z,74.00
2018-05-26T11:09:43.988Z,73.60
2018-05-26T11:12:12.253Z,73.70
2018-05-26T11:14:40.565Z,73.10
2018-05-26T11:17:08.813Z,71.50
2018-05-26T11:19:37.100Z,70.10
2018-05-26T11:22:05.387Z,71.00
2018-05-26T11:24:33.737Z,71.00
2018-05-26T11:27:01.915Z,70.60
2018-05-26T11:29:30.224Z,70.00
2018-05-26T11:31:58.472Z,69.70
2018-05-26T11:34:26.746Z,69.20
2018-05-26T11:36:55.061Z,68.30
2018-05-26T11:39:23.337Z,68.50
2018-05-26T11:41:51.592Z,67.50
2018-05-26T11:44:19.863Z,65.30
2018-05-26T11:46:48.136Z,65.10
2018-05-26T11:49:16.408Z,65.70
2018-05-26T11:51:44.705Z,64.00
2018-05-26T11:54:12.985Z,63.80
2018-05-26T11:56:41.248Z,62.80
2018-05-26T11:59:09.529Z,61.40
2018-05-26T12:01:37.895Z,59.90
2018-05-26T12:04:06.168Z,59.50
2018-05-26T12:06:34.576Z,59.10
2018-05-26T12:09:02.827Z,59.40
2018-05-26T12:11:31.103Z,58.70
2018-05-26T12:13:59.367Z,58.60
2018-05-26T12:16:27.636Z,58.00
2018-05-26T12:18:55.932Z,58.20
2018-05-26T12:21:24.202Z,58.30
2018-05-26T12:23:52.552Z,58.00
2018-05-26T12:26:20.846Z,58.40
2018-05-26T12:28:49.115Z,58.20
2018-05-26T12:31:17.400Z,57.70
2018-05-26T12:33:45.677Z,57.80
2018-05-26T12:36:13.976Z,58.50
2018-05-26T12:38:42.676Z,57.70
2018-05-26T12:41:10.921Z,57.40
2018-05-26T12:43:39.195Z,57.40
2018-05-26T12:46:07.472Z,56.90
2018-05-26T12:48:35.729Z,57.40
2018-05-26T12:51:04.028Z,57.20
2018-05-26T12:53:32.352Z,56.90
2018-05-26T12:56:02.117Z,57.00
2018-05-26T12:58:30.374Z,57.00
2018-05-26T13:00:58.668Z,56.80
2018-05-26T13:03:26.923Z,56.60
2018-05-26T13:05:55.208Z,56.20
2018-05-26T13:08:23.520Z,56.50
2018-05-26T13:10:51.904Z,56.30
2018-05-26T13:13:20.184Z,55.40
2018-05-26T13:15:48.571Z,55.40
2018-05-26T13:18:16.815Z,56.30
2018-05-26T13:20:45.115Z,56.10
2018-05-26T13:23:14.178Z,55.80
2018-05-26T13:25:42.454Z,55.70
2018-05-26T13:28:10.720Z,55.50
2018-05-26T13:30:38.992Z,55.50
2018-05-26T13:33:07.297Z,56.00
2018-05-26T13:35:35.603Z,55.40
2018-05-26T13:38:04.647Z,55.30
2018-05-26T13:40:32.912Z,55.30
2018-05-26T13:43:01.221Z,54.50
2018-05-26T13:45:29.556Z,54.60
2018-05-26T13:47:57.828Z,54.50
2018-05-26T13:50:26.102Z,53.60
2018-05-26T13:52:54.405Z,52.60
2018-05-26T13:55:23.399Z,52.20
2018-05-26T13:57:51.672Z,52.20
2018-05-26T14:00:19.971Z,51.40
2018-05-26T14:02:48.255Z,51.70
2018-05-26T14:05:16.525Z,52.00
2018-05-26T14:07:44.924Z,51.50
2018-05-26T14:10:13.212Z,50.80
2018-05-26T14:12:42.267Z,49.50
2018-05-26T14:15:10.555Z,49.40
2018-05-26T14:17:38.928Z,49.20
2018-05-26T14:20:07.305Z,48.20
2018-05-26T14:22:35.698Z,48.10
2018-05-26T14:25:04.017Z,50.00
2018-05-26T14:27:32.315Z,50.60
2018-05-26T14:30:00.654Z,50.30
2018-05-26T14:32:29.712Z,51.40
2018-05-26T14:34:58.004Z,51.40
2018-05-26T14:37:26.289Z,50.80
2018-05-26T14:39:54.640Z,50.60
2018-05-26T14:42:22.934Z,51.60
2018-05-26T14:44:53.053Z,50.30
2018-05-26T14:47:21.337Z,50.30
2018-05-26T14:49:50.454Z,50.20
2018-05-26T14:52:18.652Z,50.10
2018-05-26T14:54:46.960Z,50.10
2018-05-26T14:57:15.604Z,48.60
2018-05-26T14:59:43.916Z,47.70
2018-05-26T15:02:12.208Z,47.60
2018-05-26T15:04:40.508Z,47.20
2018-05-26T15:07:09.544Z,47.10
2018-05-26T15:09:37.836Z,47.60
2018-05-26T15:12:06.096Z,46.40
2018-05-26T15:14:34.374Z,45.50
2018-05-26T15:17:03.464Z,43.50
2018-05-26T15:19:31.838Z,43.10
2018-05-26T15:22:00.236Z,41.10
2018-05-26T15:24:28.619Z,39.90
2018-05-26T15:26:56.952Z,39.20
2018-05-26T15:29:26.376Z,37.30
2018-05-26T15:31:54.714Z,36.60
2018-05-26T15:34:24.027Z,37.00
2018-05-26T15:36:53.793Z,36.80
2018-05-26T15:39:22.059Z,36.80
2018-05-26T15:41:50.382Z,35.30
2018-05-26T15:44:19.444Z,35.10
2018-05-26T15:46:48.507Z,34.80
2018-05-26T15:49:16.868Z,34.70
2018-05-26T15:51:45.964Z,34.00
2018-05-26T15:54:15.002Z,33.60
2018-05-26T15:56:43.386Z,33.50
2018-05-26T15:59:11.759Z,32.90
2018-05-26T16:01:40.053Z,32.80
2018-05-26T16:04:08.323Z,32.50
2018-05-26T16:06:38.116Z,31.10
2018-05-26T16:09:06.399Z,31.10
2018-05-26T16:11:34.687Z,30.60
2018-05-26T16:14:02.973Z,30.40
2018-05-26T16:16:32.097Z,31.10
2018-05-26T16:19:00.408Z,31.00
2018-05-26T16:21:29.601Z,30.50
2018-05-26T16:23:57.940Z,30.50
2018-05-26T16:26:27.019Z,30.00
2018-05-26T16:28:55.387Z,29.90
2018-05-26T16:31:24.499Z,29.50
2018-05-26T16:33:52.781Z,29.30
2018-05-26T16:36:21.961Z,28.80
2018-05-26T16:38:50.245Z,28.80
2018-05-26T16:41:18.628Z,28.30
2018-05-26T16:43:47.720Z,28.30
2018-05-26T16:46:16.804Z,28.00
2018-05-26T16:48:45.113Z,28.00
2018-05-26T16:51:13.384Z,27.70
2018-05-26T16:53:42.527Z,27.10
2018-05-26T16:56:10.821Z,27.10
2018-05-26T16:58:39.144Z,27.10
2018-05-26T17:01:07.496Z,26.90
2018-05-26T17:03:35.858Z,27.20
2018-05-26T17:06:05.656Z,27.30
2018-05-26T17:08:33.935Z,27.20
2018-05-26T17:11:02.296Z,27.10
2018-05-26T17:13:30.559Z,27.10
2018-05-26T17:15:58.844Z,27.00
2018-05-26T17:18:27.200Z,26.80
2018-05-26T17:20:56.237Z,26.80
2018-05-26T17:23:24.571Z,26.70
2018-05-26T17:25:52.868Z,26.80
2018-05-26T17:28:21.162Z,26.90
2018-05-26T17:30:49.454Z,27.50
2018-05-26T17:33:17.735Z,27.20
2018-05-26T17:35:46.155Z,26.90
2018-05-26T17:38:15.199Z,26.40
2018-05-26T17:40:43.587Z,26.40
2018-05-26T17:43:13.372Z,26.70
2018-05-26T17:45:41.887Z,26.70
2018-05-26T17:48:11.709Z,26.80
2018-05-26T17:50:40.012Z,26.80
2018-05-26T17:53:08.318Z,27.70
2018-05-26T17:55:36.732Z,28.80
2018-05-26T17:58:05.027Z,29.60
2018-05-26T18:00:33.368Z,30.30
2018-05-26T18:03:02.420Z,31.60
2018-05-26T18:05:30.698Z,31.60
2018-05-26T18:07:58.967Z,32.70
2018-05-26T18:10:27.294Z,33.00
2018-05-26T18:12:55.736Z,33.50
2018-05-26T18:15:24.786Z,34.60
2018-05-26T18:17:53.063Z,34.00
2018-05-26T18:20:24.231Z,34.30
2018-05-26T18:22:52.521Z,34.60
2018-05-26T18:25:21.572Z,36.00
2018-05-26T18:27:49.892Z,35.90
2018-05-26T18:30:18.207Z,39.10
2018-05-26T18:32:46.537Z,38.50
2018-05-26T18:35:14.811Z,37.60
2018-05-26T18:37:43.111Z,39.90
2018-05-26T18:40:11.516Z,37.80
2018-05-26T18:42:39.932Z,38.70
2018-05-26T18:45:08.215Z,41.50
2018-05-26T18:47:36.502Z,41.70
2018-05-26T18:50:04.893Z,41.50
2018-05-26T18:52:33.231Z,40.30
2018-05-26T18:55:01.520Z,43.40
2018-05-26T18:57:29.807Z,44.80
2018-05-26T18:59:58.235Z,48.30
2018-05-26T19:02:26.579Z,47.70
2018-05-26T19:04:54.835Z,48.90
2018-05-26T19:07:23.948Z,50.30
2018-05-26T19:09:53.724Z,51.30
2018-05-26T19:12:21.968Z,51.30
2018-05-26T19:14:50.273Z,51.60
2018-05-26T19:17:18.571Z,52.50
2018-05-26T19:19:46.862Z,53.30
2018-05-26T19:22:15.135Z,53.70
2018-05-26T19:24:43.408Z,54.00
2018-05-26T19:27:13.191Z,55.80
2018-05-26T19:29:41.482Z,55.70
2018-05-26T19:32:09.768Z,56.30
2018-05-26T19:34:38.043Z,56.80
2018-05-26T19:37:06.365Z,57.50
2018-05-26T19:39:34.612Z,57.90
2018-05-26T19:42:02.900Z,59.00
2018-05-26T19:44:31.213Z,59.40
2018-05-26T19:46:59.544Z,60.40
2018-05-26T19:49:27.812Z,61.40
2018-05-26T19:51:56.095Z,70.80
2018-05-26T19:54:24.451Z,64.20
2018-05-26T19:56:52.739Z,65.50
2018-05-26T19:59:21.813Z,69.10
2018-05-26T20:01:50.088Z,69.00
2018-05-26T20:04:18.401Z,70.60
2018-05-26T20:06:47.457Z,72.80
2018-05-26T20:09:15.850Z,72.60
2018-05-26T20:11:44.148Z,74.70
2018-05-26T20:14:12.400Z,76.70
2018-05-26T20:16:40.686Z,77.10
2018-05-26T20:19:08.981Z,79.90
2018-05-26T20:21:37.254Z,80.70
2018-05-26T20:24:05.524Z,82.90
2018-05-26T20:26:33.801Z,84.10
2018-05-26T20:29:02.880Z,87.30
2018-05-26T20:31:31.219Z,87.10
2018-05-26T20:33:59.523Z,88.70
2018-05-26T20:36:27.817Z,89.10
2018-05-26T20:38:56.059Z,90.30
2018-05-26T20:41:24.444Z,91.10
2018-05-26T20:43:52.742Z,91.50
2018-05-26T20:46:21.091Z,91.80
2018-05-26T20:48:49.515Z,92.70
2018-05-26T20:51:18.852Z,93.30
2018-05-26T20:53:47.901Z,93.80
2018-05-26T20:56:17.004Z,94.00
2018-05-26T20:58:45.376Z,94.00
2018-05-26T21:01:13.753Z,94.40
2018-05-26T21:03:42.015Z,95.00
2018-05-26T21:06:10.316Z,95.60
2018-05-26T21:08:38.618Z,96.10
2018-05-26T21:11:07.116Z,96.50
2018-05-26T21:13:36.147Z,97.40
2018-05-26T21:16:06.388Z,97.40
2018-05-26T21:18:34.776Z,97.90
2018-05-26T21:21:03.132Z,98.60
2018-05-26T21:23:31.409Z,98.70
2018-05-26T21:25:59.671Z,99.00
2018-05-26T21:28:27.944Z,99.30
2018-05-26T21:30:56.219Z,99.60
2018-05-26T21:33:24.844Z,99.90
2018-05-26T21:35:53.252Z,99.90
2018-05-26T21:40:56.944Z,99.90
2018-05-26T21:43:25.200Z,99.90
2018-05-26T21:45:53.467Z,99.90
2018-05-26T21:48:21.741Z,99.90
2018-05-26T21:50:50.026Z,99.90
2018-05-26T21:53:18.309Z,99.90
2018-05-26T21:55:46.574Z,99.90
2018-05-26T21:58:14.951Z,99.90
2018-05-26T22:00:43.234Z,99.90
2018-05-26T22:03:11.503Z,99.90
2018-05-26T22:05:39.775Z,99.90
2018-05-26T22:08:08.180Z,99.90
2018-05-26T22:10:36.447Z,99.90
2018-05-26T22:13:04.725Z,99.90
2018-05-26T22:15:33.010Z,99.90
2018-05-26T22:18:01.617Z,99.90
2018-05-26T22:20:29.868Z,99.90
2018-05-26T22:22:59.785Z,99.90
2018-05-26T22:25:28.289Z,99.90
2018-05-26T22:27:57.325Z,99.90
2018-05-26T22:30:25.739Z,99.90
2018-05-26T22:32:54.800Z,99.90
2018-05-26T22:35:23.080Z,99.90
2018-05-26T22:37:51.490Z,99.90
2018-05-26T22:40:19.848Z,99.90
2018-05-26T22:42:48.156Z,99.90
2018-05-26T22:45:17.340Z,99.90
2018-05-26T22:47:45.614Z,99.90
2018-05-26T22:50:15.424Z,99.90
2018-05-26T22:52:43.717Z,99.90
2018-05-26T22:55:12.071Z,99.90
2018-05-26T22:57:40.398Z,99.90
2018-05-26T23:00:08.676Z,99.90
2018-05-26T23:02:37.020Z,99.90
2018-05-26T23:05:06.148Z,99.90
2018-05-26T23:07:34.431Z,99.90
2018-05-26T23:10:02.732Z,99.90
2018-05-26T23:12:31.024Z,99.90
2018-05-26T23:14:59.339Z,99.90
2018-05-26T23:17:27.730Z,99.90
2018-05-26T23:19:56.047Z,99.90
2018-05-26T23:22:24.377Z,99.90
2018-05-26T23:24:52.667Z,99.90
2018-05-26T23:27:20.996Z,99.90
2018-05-26T23:29:49.277Z,99.90
2018-05-26T23:32:17.545Z,99.90
2018-05-26T23:34:45.826Z,99.90
2018-05-26T23:37:14.147Z,99.90
2018-05-26T23:39:43.239Z,99.90
2018-05-26T23:42:12.295Z,99.90
2018-05-26T23:44:40.620Z,99.90
2018-05-26T23:47:08.916Z,99.90
2018-05-26T23:49:37.189Z,99.90
2018-05-26T23:52:05.510Z,99.90
2018-05-26T23:54:35.343Z,99.90
2018-05-26T23:57:03.708Z,99.90
2018-05-26T23:59:32.836Z,99.90
